Time;durP1;ratioP1;P1;durP2;ratioP2;P2;SDS_P1;SDS_P2;PMS_P1;PMS_P2;Temp;Humidity;BMP_temperature;BMP_pressure;BME280_temperature;BME280_humidity;BME280_pressure;Samples;Min_cycle;Max_cycle;Signal;HPM_P1;HPM_P2
2022/04/30 05:49:55;;;;;;;3.45;2.35;;;14.30;60.10;;;;;;5895500;23;20404;-67
2022/04/30 05:52:21;;;;;;;3.80;1.95;;;14.40;60.40;;;;;;4919894;29;20059;-69
2022/04/30 05:54:47;;;;;;;8.27;2.33;;;14.50;60.50;;;;;;4918471;29;20457;-69
2022/04/30 05:57:14;;;;;;;5.07;1.83;;;14.70;60.10;;;;;;4937371;29;20044;-72
2022/04/30 05:59:40;;;;;;;5.20;1.60;;;14.80;59.80;;;;;;4941107;29;20050;-68
2022/04/30 06:02:05;;;;;;;4.97;2.30;;;15.00;59.20;;;;;;4940815;29;20397;-69
2022/04/30 06:04:31;;;;;;;2.72;1.65;;;15.10;58.90;;;;;;4940943;29;20090;-71
2022/04/30 06:06:58;;;;;;;4.55;1.60;;;15.40;59.10;;;;;;4940908;29;20090;-70
2022/04/30 06:09:25;;;;;;;3.35;1.50;;;15.80;58.80;;;;;;4905269;29;20056;-71
2022/04/30 06:11:50;;;;;;;4.35;1.60;;;16.10;58.50;;;;;;4920540;29;20107;-70
2022/04/30 06:14:16;;;;;;;2.15;1.35;;;16.30;58.10;;;;;;4922072;29;20052;-70
2022/04/30 06:16:42;;;;;;;5.35;1.58;;;16.50;57.90;;;;;;4923017;29;20052;-70
2022/04/30 06:19:08;;;;;;;2.42;1.35;;;16.60;57.60;;;;;;4922793;29;20108;-70
2022/04/30 06:21:34;;;;;;;3.22;1.50;;;16.80;57.60;;;;;;4934950;29;20075;-69
2022/04/30 06:24:00;;;;;;;4.53;1.77;;;16.80;57.50;;;;;;4940578;29;20115;-70
2022/04/30 06:26:25;;;;;;;2.05;1.15;;;16.90;57.50;;;;;;4940649;29;20118;-70
2022/04/30 06:28:51;;;;;;;2.55;1.35;;;16.90;57.40;;;;;;4940507;29;20043;-70
2022/04/30 06:31:17;;;;;;;4.68;1.33;;;16.90;57.50;;;;;;4928811;29;20071;-70
2022/04/30 06:33:42;;;;;;;4.82;1.48;;;16.90;57.40;;;;;;4921398;29;20067;-70
2022/04/30 06:36:08;;;;;;;3.80;1.58;;;17.00;57.40;;;;;;4920189;29;20055;-71
2022/04/30 06:38:34;;;;;;;2.15;1.38;;;17.00;57.20;;;;;;4920018;29;20048;-70
2022/04/30 06:41:00;;;;;;;3.42;1.42;;;17.00;57.20;;;;;;4923541;29;20060;-73
2022/04/30 06:43:25;;;;;;;3.33;1.92;;;17.00;57.10;;;;;;4940916;29;20047;-70
2022/04/30 06:45:51;;;;;;;3.88;1.80;;;16.80;56.70;;;;;;4914492;29;20067;-72
2022/04/30 06:48:17;;;;;;;4.85;1.50;;;16.90;57.40;;;;;;4919887;29;20126;-72
2022/04/30 06:50:45;;;;;;;2.33;1.45;;;17.00;57.30;;;;;;4925663;29;20062;-76
2022/04/30 06:58:53;;;;;;;4.07;1.50;;;17.40;56.70;;;;;;4919704;29;20052;-74
2022/04/30 07:01:38;;;;;;;4.75;1.85;;;17.60;56.50;;;;;;4920777;29;20056;-72
2022/04/30 07:04:05;;;;;;;4.85;1.90;;;17.60;56.50;;;;;;4906373;29;20060;-73
2022/04/30 07:06:32;;;;;;;5.75;1.90;;;17.40;55.60;;;;;;4920701;29;20128;-72
2022/04/30 07:08:58;;;;;;;7.35;1.80;;;17.60;56.50;;;;;;4920112;29;20123;-73
2022/04/30 07:11:25;;;;;;;7.32;2.55;;;17.70;55.50;;;;;;4901807;29;20068;-70
2022/04/30 07:13:51;;;;;;;4.25;1.90;;;17.20;56.70;;;;;;4920698;29;20199;-72
2022/04/30 07:16:17;;;;;;;9.40;1.70;;;17.20;57.60;;;;;;4920248;29;20141;-71
2022/04/30 07:18:42;;;;;;;3.97;1.67;;;17.40;57.50;;;;;;4916837;29;20204;-71
2022/04/30 07:21:08;;;;;;;5.32;1.70;;;17.50;57.40;;;;;;4920426;29;20047;-71
2022/04/30 07:23:34;;;;;;;3.45;1.73;;;17.60;57.20;;;;;;4920279;29;20071;-70
2022/04/30 07:25:59;;;;;;;3.53;1.85;;;17.70;57.00;;;;;;4920563;29;20114;-72
2022/04/30 07:28:26;;;;;;;4.88;1.95;;;17.70;56.80;;;;;;4920157;29;20387;-69
2022/04/30 07:30:52;;;;;;;8.63;1.80;;;17.70;55.70;;;;;;4920466;29;20416;-71
2022/04/30 07:33:18;;;;;;;6.05;1.90;;;17.30;58.10;;;;;;4915869;29;20064;-72
2022/04/30 07:35:43;;;;;;;5.22;2.38;;;17.40;57.90;;;;;;4919568;29;20190;-72
2022/04/30 07:38:09;;;;;;;7.80;2.92;;;17.50;58.00;;;;;;4919750;29;20103;-70
2022/04/30 07:40:38;;;;;;;10.95;2.95;;;17.40;57.30;;;;;;4919746;29;20052;-70
2022/04/30 07:43:04;;;;;;;11.43;2.30;;;17.30;58.10;;;;;;4919827;29;20051;-71
2022/04/30 07:45:30;;;;;;;12.68;3.05;;;17.30;58.70;;;;;;4920115;29;20118;-78
2022/04/30 07:47:56;;;;;;;6.63;2.92;;;17.30;58.70;;;;;;4920016;29;20058;-72
2022/04/30 07:50:25;;;;;;;13.43;2.67;;;17.40;58.50;;;;;;4919593;29;20043;-74
2022/04/30 07:52:51;;;;;;;10.35;1.92;;;17.40;58.30;;;;;;4919603;29;20101;-75
2022/04/30 07:55:17;;;;;;;6.18;2.75;;;17.50;58.30;;;;;;4911783;29;20060;-72
2022/04/30 07:57:42;;;;;;;11.45;2.40;;;17.50;58.10;;;;;;4919839;29;20048;-73
2022/04/30 08:00:09;;;;;;;8.43;2.65;;;17.60;58.00;;;;;;4919568;29;20047;-72
2022/04/30 08:02:35;;;;;;;12.93;3.40;;;17.60;58.00;;;;;;4919854;29;20409;-74
2022/04/30 08:05:03;;;;;;;10.55;2.70;;;17.60;58.20;;;;;;4919704;29;20084;-74
2022/04/30 08:07:29;;;;;;;10.45;2.50;;;17.60;58.40;;;;;;4920232;29;20052;-72
2022/04/30 08:09:55;;;;;;;6.50;2.47;;;17.70;58.40;;;;;;4903605;29;20067;-72
2022/04/30 08:12:21;;;;;;;11.48;3.20;;;17.70;58.30;;;;;;4920445;29;20348;-73
2022/04/30 08:14:48;;;;;;;16.90;2.58;;;17.80;58.40;;;;;;4919560;29;20048;-72
2022/04/30 08:17:13;;;;;;;10.27;2.33;;;17.80;58.40;;;;;;4900778;29;20048;-72
2022/04/30 08:19:40;;;;;;;11.77;3.17;;;17.80;58.50;;;;;;4918450;29;20040;-76
2022/04/30 08:22:06;;;;;;;8.73;2.60;;;17.70;58.10;;;;;;4919047;29;20052;-74
2022/04/30 08:24:32;;;;;;;16.42;2.63;;;17.70;58.70;;;;;;4919206;29;20139;-72
2022/04/30 08:26:59;;;;;;;9.20;2.78;;;17.80;58.70;;;;;;4917067;29;20051;-72
2022/04/30 08:29:28;;;;;;;10.05;2.47;;;17.90;58.60;;;;;;4919466;29;20059;-75
2022/04/30 08:31:54;;;;;;;13.18;3.20;;;17.90;58.40;;;;;;4918907;29;20036;-72
2022/04/30 08:34:20;;;;;;;12.90;3.03;;;17.90;58.40;;;;;;4919290;29;20040;-72
2022/04/30 08:36:46;;;;;;;16.30;3.35;;;17.90;58.40;;;;;;4903843;29;20111;-73
2022/04/30 08:39:12;;;;;;;19.13;3.33;;;17.90;58.50;;;;;;4919151;29;20394;-72
2022/04/30 08:41:41;;;;;;;16.85;3.10;;;17.90;58.30;;;;;;4918024;29;20056;-71
2022/04/30 08:44:08;;;;;;;12.00;3.08;;;17.90;58.20;;;;;;4918249;29;20461;-79
2022/04/30 08:46:34;;;;;;;20.10;3.17;;;17.70;58.40;;;;;;4934369;29;20051;-75
2022/04/30 08:49:00;;;;;;;20.15;3.65;;;17.80;58.80;;;;;;4918780;29;20043;-76
2022/04/30 08:51:25;;;;;;;12.55;3.10;;;17.80;58.50;;;;;;4923553;29;20063;-70
2022/04/30 08:53:51;;;;;;;18.40;3.83;;;17.80;57.60;;;;;;4918893;29;20364;-70
2022/04/30 08:56:17;;;;;;;17.20;4.18;;;17.80;56.80;;;;;;4927427;29;20043;-69
2022/04/30 08:58:42;;;;;;;18.08;4.30;;;17.80;56.30;;;;;;4921538;29;20052;-71
2022/04/30 09:01:10;;;;;;;8.77;2.72;;;17.80;56.30;;;;;;4918739;29;20056;-72
2022/04/30 09:03:37;;;;;;;13.35;3.47;;;17.80;56.30;;;;;;4931133;29;20083;-71
2022/04/30 09:06:04;;;;;;;10.48;3.30;;;17.80;56.10;;;;;;4919845;29;20059;-70
2022/04/30 09:08:30;;;;;;;7.93;3.58;;;17.80;55.50;;;;;;4918975;29;20067;-71
2022/04/30 09:11:09;;;;;;;7.50;3.30;;;17.80;54.60;;;;;;4926438;29;20052;-72
2022/04/30 09:14:01;;;;;;;7.07;2.75;;;17.80;53.60;;;;;;4919858;29;20052;-71
2022/04/30 09:16:26;;;;;;;10.23;3.30;;;17.70;53.00;;;;;;4914458;29;20071;-71
2022/04/30 09:18:52;;;;;;;11.32;3.80;;;17.80;53.80;;;;;;4918293;29;20052;-71
2022/04/30 09:21:19;;;;;;;8.02;3.13;;;17.80;54.10;;;;;;4918782;29;20052;-71
2022/04/30 09:23:45;;;;;;;7.63;2.97;;;17.80;54.10;;;;;;4936455;29;20047;-71
2022/04/30 09:26:11;;;;;;;7.68;3.10;;;17.80;54.30;;;;;;4934908;29;20040;-71
2022/04/30 09:28:39;;;;;;;8.00;2.88;;;17.80;54.40;;;;;;4918359;29;20059;-71
2022/04/30 09:31:09;;;;;;;9.57;2.88;;;17.90;54.60;;;;;;4918561;29;20060;-71
2022/04/30 09:33:37;;;;;;;10.60;3.40;;;17.90;54.70;;;;;;4939344;29;20427;-71
2022/04/30 09:38:50;;;;;;;6.65;2.92;;;18.00;55.00;;;;;;4940990;29;20056;-71
2022/04/30 09:41:25;;;;;;;7.22;2.92;;;18.00;55.00;;;;;;4933579;29;20060;-71
2022/04/30 09:44:06;;;;;;;5.35;2.65;;;18.10;55.60;;;;;;4938807;29;20454;-71
2022/04/30 09:46:37;;;;;;;5.07;2.28;;;18.10;54.80;;;;;;4923389;29;20059;-70
2022/04/30 09:54:39;;;;;;;6.10;2.88;;;18.10;54.80;;;;;;4922038;29;20091;-71
2022/04/30 09:57:07;;;;;;;5.10;2.60;;;18.20;54.90;;;;;;4920401;29;20119;-71
2022/04/30 09:59:36;;;;;;;5.88;2.53;;;18.20;54.80;;;;;;4921710;29;20056;-70
2022/04/30 10:02:07;;;;;;;9.85;2.92;;;18.20;54.80;;;;;;4909147;29;20047;-72
2022/04/30 10:04:34;;;;;;;7.10;2.63;;;18.20;54.80;;;;;;4918746;29;20071;-70
2022/04/30 10:07:01;;;;;;;8.80;2.72;;;18.20;55.30;;;;;;4921819;29;20144;-71
2022/04/30 10:09:41;;;;;;;6.30;2.50;;;17.90;56.20;;;;;;4922076;29;20083;-72
2022/04/30 10:12:42;;;;;;;9.25;2.55;;;17.80;56.60;;;;;;4921198;29;20036;-71
2022/04/30 10:15:37;;;;;;;7.05;2.70;;;17.70;56.90;;;;;;4869668;29;20151;-71
2022/04/30 10:18:07;;;;;;;8.07;2.55;;;17.60;57.30;;;;;;4904675;29;20164;-71
2022/04/30 10:20:36;;;;;;;7.18;2.72;;;17.60;57.30;;;;;;4921499;29;20110;-72
2022/04/30 10:23:03;;;;;;;9.63;2.90;;;17.70;57.40;;;;;;4920786;29;20392;-74
2022/04/30 10:25:41;;;;;;;7.95;2.70;;;17.70;57.30;;;;;;4921440;29;20504;-72
2022/04/30 10:28:19;;;;;;;9.13;2.95;;;17.70;56.90;;;;;;4915766;29;20048;-74
2022/04/30 10:31:05;;;;;;;7.57;3.42;;;17.80;56.70;;;;;;4920832;29;20063;-72
2022/04/30 10:33:31;;;;;;;5.68;3.58;;;17.80;56.30;;;;;;4920787;29;20064;-72
2022/04/30 10:36:13;;;;;;;5.18;2.85;;;17.80;55.90;;;;;;4921499;29;20340;-73
2022/04/30 10:38:40;;;;;;;6.15;3.25;;;17.80;55.10;;;;;;4921124;29;20052;-72
2022/04/30 10:41:11;;;;;;;5.70;2.95;;;17.80;55.10;;;;;;4920933;29;20134;-73
2022/04/30 10:43:38;;;;;;;7.45;3.03;;;17.80;55.10;;;;;;4919258;29;20091;-72
2022/04/30 10:46:06;;;;;;;5.50;2.90;;;17.80;55.20;;;;;;4921057;29;20054;-71
2022/04/30 10:48:35;;;;;;;5.50;3.08;;;17.90;55.30;;;;;;4920559;29;20504;-72
2022/04/30 10:51:09;;;;;;;8.60;3.13;;;17.90;55.30;;;;;;4921003;29;20059;-72
2022/04/30 10:53:39;;;;;;;9.35;2.75;;;17.90;55.40;;;;;;4920308;29;20409;-73
2022/04/30 10:56:07;;;;;;;8.65;2.90;;;18.00;56.20;;;;;;4919811;29;20056;-73
2022/04/30 10:58:36;;;;;;;11.98;3.75;;;18.00;55.70;;;;;;4900458;29;20051;-74
2022/04/30 11:01:14;;;;;;;12.27;3.00;;;18.00;56.10;;;;;;4921223;29;20063;-73
2022/04/30 11:03:45;;;;;;;11.13;3.58;;;18.00;56.10;;;;;;4920692;29;20124;-74
2022/04/30 11:06:11;;;;;;;15.77;3.40;;;18.10;56.30;;;;;;4920955;29;20134;-76
2022/04/30 11:08:38;;;;;;;14.25;4.05;;;18.00;56.60;;;;;;4919938;29;20052;-72
2022/04/30 11:11:04;;;;;;;14.55;2.83;;;18.00;57.60;;;;;;4920350;29;20067;-73
2022/04/30 11:13:30;;;;;;;10.75;2.95;;;18.10;57.20;;;;;;4912919;29;20056;-72
2022/04/30 11:16:00;;;;;;;28.70;4.25;;;18.10;57.20;;;;;;4920009;29;20048;-72
2022/04/30 11:18:26;;;;;;;24.70;3.65;;;18.10;57.30;;;;;;4919792;29;20051;-73
2022/04/30 11:21:01;;;;;;;25.15;3.72;;;18.20;57.40;;;;;;4919534;29;20373;-73
2022/04/30 11:23:28;;;;;;;12.63;3.33;;;18.20;57.60;;;;;;4920037;29;20052;-72
2022/04/30 11:25:54;;;;;;;17.02;3.95;;;18.10;57.60;;;;;;4920994;29;20043;-72
2022/04/30 11:28:27;;;;;;;20.98;3.30;;;18.20;57.70;;;;;;4920429;29;20051;-77
2022/04/30 11:30:58;;;;;;;17.33;3.73;;;18.10;57.80;;;;;;4920676;29;20127;-74
2022/04/30 11:33:36;;;;;;;18.80;3.80;;;18.10;57.90;;;;;;4903595;29;20051;-76
2022/04/30 11:36:02;;;;;;;14.32;3.42;;;18.10;57.90;;;;;;4904065;29;20386;-74
2022/04/30 11:38:28;;;;;;;18.02;3.47;;;18.10;58.10;;;;;;4919901;29;20044;-73
2022/04/30 11:41:03;;;;;;;16.50;3.55;;;18.10;58.30;;;;;;4920259;29;20055;-76
2022/04/30 11:43:28;;;;;;;14.52;3.70;;;18.10;58.60;;;;;;4919820;29;20054;-75
2022/04/30 11:45:59;;;;;;;21.13;4.20;;;18.10;58.50;;;;;;4918980;29;20052;-76
2022/04/30 11:48:27;;;;;;;14.90;3.85;;;18.10;58.40;;;;;;4917862;29;20066;-74
2022/04/30 11:50:54;;;;;;;13.43;3.67;;;18.00;58.00;;;;;;4904397;29;20134;-72
2022/04/30 11:53:20;;;;;;;17.55;4.47;;;18.00;57.70;;;;;;4919740;29;20052;-74
2022/04/30 11:55:46;;;;;;;11.98;4.40;;;18.00;57.80;;;;;;4919758;29;20070;-74
2022/04/30 11:58:12;;;;;;;10.52;3.67;;;18.00;57.90;;;;;;4920252;29;20095;-72
2022/04/30 12:00:38;;;;;;;17.13;4.32;;;18.00;57.90;;;;;;4919926;29;20122;-73
2022/04/30 12:03:04;;;;;;;12.95;3.80;;;18.00;58.00;;;;;;4919483;29;20059;-76
2022/04/30 12:05:31;;;;;;;11.30;3.88;;;18.00;58.10;;;;;;4919832;29;20055;-73
2022/04/30 12:08:01;;;;;;;9.65;3.03;;;18.00;57.90;;;;;;4919889;29;20048;-74
2022/04/30 12:10:28;;;;;;;11.75;3.30;;;18.00;57.60;;;;;;4919909;29;20048;-72
2022/04/30 12:12:55;;;;;;;10.60;3.88;;;18.00;57.50;;;;;;4919128;29;20056;-72
2022/04/30 12:15:21;;;;;;;8.50;3.08;;;17.90;57.50;;;;;;4919481;29;20055;-73
2022/04/30 12:26:11;;;;;;;10.77;3.05;;;18.00;58.10;;;;;;4919083;29;20047;-75
2022/04/30 12:28:50;;;;;;;18.10;3.83;;;18.00;58.50;;;;;;4920006;29;20357;-72
2022/04/30 12:31:16;;;;;;;13.70;3.80;;;18.00;59.20;;;;;;4918446;29;20601;-73
2022/04/30 12:33:51;;;;;;;11.50;3.03;;;18.00;58.50;;;;;;4918910;29;20078;-73
2022/04/30 12:36:18;;;;;;;12.23;3.40;;;18.00;58.50;;;;;;4919005;29;20058;-72
2022/04/30 12:38:56;;;;;;;18.92;3.83;;;18.00;58.40;;;;;;4918722;29;20055;-72
2022/04/30 12:41:23;;;;;;;10.73;3.95;;;18.00;58.40;;;;;;4919082;29;20195;-72
2022/04/30 12:43:49;;;;;;;18.10;3.85;;;18.00;58.50;;;;;;4919163;29;20131;-72
2022/04/30 12:46:23;;;;;;;13.48;3.33;;;18.00;58.50;;;;;;4919145;29;20051;-72
2022/04/30 12:48:50;;;;;;;16.92;3.53;;;18.00;58.10;;;;;;4918977;29;20052;-73
2022/04/30 12:51:16;;;;;;;13.55;3.28;;;18.00;57.90;;;;;;4918070;29;20177;-73
2022/04/30 12:53:43;;;;;;;13.98;3.45;;;18.00;58.00;;;;;;4918019;29;20063;-72
2022/04/30 12:56:08;;;;;;;12.85;3.42;;;18.00;57.60;;;;;;4919128;29;20080;-71
2022/04/30 12:58:35;;;;;;;25.67;5.40;;;17.90;56.60;;;;;;4919581;29;20052;-72
2022/04/30 13:01:01;;;;;;;18.80;4.13;;;17.90;56.60;;;;;;4918788;29;20086;-71
2022/04/30 13:03:28;;;;;;;9.32;3.33;;;17.80;55.80;;;;;;4902434;29;20445;-72
2022/04/30 13:05:54;;;;;;;12.95;4.18;;;17.70;56.10;;;;;;4918535;29;20087;-73
2022/04/30 13:08:19;;;;;;;12.80;3.25;;;17.70;55.80;;;;;;4901390;29;20095;-73
2022/04/30 13:13:32;;;;;;;15.20;3.47;;;17.80;58.00;;;;;;4918240;29;20092;-71
2022/04/30 13:16:07;;;;;;;12.50;3.50;;;17.80;58.10;;;;;;4915956;29;20350;-72
2022/04/30 13:18:34;;;;;;;13.48;3.33;;;17.80;58.10;;;;;;4918239;29;20052;-72
2022/04/30 13:21:02;;;;;;;8.88;3.22;;;17.90;58.10;;;;;;4918863;29;20056;-72
2022/04/30 13:23:27;;;;;;;11.43;2.80;;;17.90;58.10;;;;;;4918790;29;20052;-72
2022/04/30 13:25:53;;;;;;;18.65;3.72;;;17.90;58.10;;;;;;4918151;29;20103;-72
2022/04/30 13:28:19;;;;;;;13.80;3.75;;;18.00;59.20;;;;;;4918672;29;20070;-73
2022/04/30 13:30:45;;;;;;;13.98;3.08;;;18.00;58.30;;;;;;4918096;29;20047;-72
2022/04/30 13:33:11;;;;;;;15.68;3.17;;;18.00;58.20;;;;;;4919140;29;20326;-72
2022/04/30 13:35:37;;;;;;;14.02;3.00;;;18.10;58.20;;;;;;4918460;29;20472;-72
2022/04/30 13:38:03;;;;;;;14.13;2.70;;;18.10;58.10;;;;;;4918245;29;20134;-73
2022/04/30 13:40:28;;;;;;;10.85;2.35;;;18.10;58.10;;;;;;4918435;29;20048;-72
2022/04/30 13:42:54;;;;;;;11.00;2.70;;;18.10;58.00;;;;;;4911034;29;20167;-72
2022/04/30 13:45:21;;;;;;;9.57;2.70;;;18.00;57.90;;;;;;4930638;29;20051;-72
2022/04/30 13:47:50;;;;;;;8.20;2.25;;;18.00;58.00;;;;;;4918429;29;20056;-72
2022/04/30 13:50:17;;;;;;;11.25;3.17;;;18.00;57.90;;;;;;4918198;29;20059;-72
2022/04/30 13:52:42;;;;;;;11.20;3.28;;;18.00;58.00;;;;;;4918370;29;20278;-71
2022/04/30 13:55:09;;;;;;;8.90;2.80;;;18.00;58.30;;;;;;4918246;29;20132;-72
2022/04/30 13:57:38;;;;;;;10.90;2.60;;;18.00;58.70;;;;;;4917944;29;20048;-72
2022/04/30 14:00:07;;;;;;;9.70;2.80;;;18.00;58.60;;;;;;4918217;29;20044;-72
2022/04/30 14:02:33;;;;;;;6.88;2.20;;;18.10;58.40;;;;;;4917966;29;20052;-72
2022/04/30 14:04:59;;;;;;;8.90;2.40;;;18.10;58.30;;;;;;4918577;29;20075;-72
2022/04/30 14:07:25;;;;;;;7.88;2.30;;;18.10;58.10;;;;;;4918173;29;20453;-72
2022/04/30 14:09:51;;;;;;;10.75;3.15;;;18.10;58.00;;;;;;4918527;29;20130;-72
2022/04/30 14:12:17;;;;;;;8.02;2.85;;;18.00;57.90;;;;;;4917669;29;20131;-72
2022/04/30 14:14:55;;;;;;;5.85;2.05;;;18.10;57.90;;;;;;4917732;29;20151;-73
2022/04/30 14:20:15;;;;;;;6.93;2.42;;;18.10;57.70;;;;;;4921016;29;20139;-72
2022/04/30 14:22:41;;;;;;;5.63;2.20;;;18.10;57.70;;;;;;4913370;29;20357;-72
2022/04/30 14:25:09;;;;;;;4.63;2.03;;;18.10;57.60;;;;;;4920877;29;20114;-72
2022/04/30 14:27:41;;;;;;;6.10;2.00;;;18.10;57.60;;;;;;4921000;29;20063;-73
2022/04/30 14:30:12;;;;;;;5.15;2.30;;;18.10;57.60;;;;;;4920878;29;20063;-73
2022/04/30 14:32:38;;;;;;;3.75;1.67;;;18.10;57.70;;;;;;4920675;29;20357;-72
2022/04/30 14:35:05;;;;;;;5.25;1.55;;;18.10;57.60;;;;;;4920814;29;20059;-72
2022/04/30 14:37:33;;;;;;;6.57;2.22;;;18.10;57.60;;;;;;4918175;29;20051;-71
2022/04/30 14:40:01;;;;;;;12.30;3.58;;;18.10;57.50;;;;;;4921177;29;20100;-72
2022/04/30 14:42:27;;;;;;;5.00;2.13;;;18.10;59.70;;;;;;4921171;29;20048;-71
2022/04/30 14:44:53;;;;;;;6.13;2.38;;;18.10;58.80;;;;;;4920243;29;20052;-71
2022/04/30 14:47:19;;;;;;;9.38;3.00;;;18.10;58.60;;;;;;4920962;29;20513;-72
2022/04/30 14:49:46;;;;;;;7.22;2.40;;;18.10;58.70;;;;;;4920915;29;20059;-71
2022/04/30 14:52:12;;;;;;;8.15;2.70;;;18.10;58.80;;;;;;4920603;29;20058;-72
2022/04/30 14:54:41;;;;;;;12.32;3.45;;;18.10;58.80;;;;;;4921046;29;20052;-73
2022/04/30 14:57:08;;;;;;;14.85;3.17;;;18.10;59.20;;;;;;4919585;29;20079;-74
2022/04/30 14:59:35;;;;;;;18.15;3.45;;;18.10;60.40;;;;;;4920706;29;20430;-76
2022/04/30 15:02:01;;;;;;;21.50;9.50;;;18.00;61.90;;;;;;4916097;29;20054;-74
2022/04/30 15:04:28;;;;;;;23.00;8.55;;;18.00;63.40;;;;;;4920542;29;20040;-72
2022/04/30 15:06:58;;;;;;;20.52;9.75;;;18.00;64.80;;;;;;4920368;29;20048;-72
2022/04/30 15:09:24;;;;;;;22.02;13.80;;;18.00;65.20;;;;;;4920172;29;20052;-72
2022/04/30 15:11:50;;;;;;;25.75;14.63;;;18.00;65.90;;;;;;4920632;29;20114;-71
2022/04/30 15:14:15;;;;;;;24.00;15.38;;;18.00;66.10;;;;;;4920540;29;20103;-76
2022/04/30 15:16:41;;;;;;;19.75;11.38;;;18.00;66.70;;;;;;4919960;29;20043;-76
2022/04/30 15:19:07;;;;;;;23.98;11.38;;;18.00;65.30;;;;;;4919914;29;20044;-76
2022/04/30 15:21:33;;;;;;;16.02;10.63;;;18.00;64.50;;;;;;4919949;29;20135;-75
2022/04/30 15:23:59;;;;;;;13.73;8.18;;;18.00;63.20;;;;;;4920203;29;20052;-77
2022/04/30 15:26:24;;;;;;;10.52;7.28;;;18.00;62.50;;;;;;4920377;29;20194;-77
2022/04/30 15:28:50;;;;;;;18.38;9.93;;;18.00;61.90;;;;;;4920308;29;20544;-77
2022/04/30 15:31:16;;;;;;;11.73;7.53;;;18.00;61.50;;;;;;4918838;29;20056;-79
2022/04/30 15:33:42;;;;;;;11.32;7.00;;;18.00;61.00;;;;;;4905616;29;20131;-77
2022/04/30 15:36:08;;;;;;;9.52;6.45;;;18.00;60.20;;;;;;4903864;29;20195;-74
2022/04/30 15:38:34;;;;;;;10.23;5.93;;;18.00;59.60;;;;;;4903225;29;20051;-72
2022/04/30 15:41:00;;;;;;;12.02;6.07;;;18.00;58.80;;;;;;4920063;29;20040;-72
2022/04/30 15:43:26;;;;;;;8.25;4.68;;;17.90;58.90;;;;;;4919735;29;20064;-73
2022/04/30 15:45:51;;;;;;;7.13;5.00;;;17.90;58.60;;;;;;4919270;29;20107;-72
2022/04/30 15:53:54;;;;;;;9.52;5.03;;;17.90;59.20;;;;;;4919656;29;20056;-73
2022/04/30 15:56:20;;;;;;;;;;;17.90;59.50;;;;;;4919683;29;20063;-73
2022/04/30 15:58:49;;;;;;;11.50;3.83;;;17.90;59.60;;;;;;4919798;29;19930;-73
2022/04/30 16:01:19;;;;;;;8.05;3.83;;;17.90;59.70;;;;;;4919656;29;20158;-74
2022/04/30 16:03:48;;;;;;;14.68;4.35;;;18.00;60.10;;;;;;4920244;29;20377;-72
2022/04/30 16:06:15;;;;;;;10.90;4.30;;;17.90;60.20;;;;;;4919948;29;20059;-73
2022/04/30 16:08:41;;;;;;;13.18;3.88;;;17.90;60.40;;;;;;4919516;29;20048;-72
2022/04/30 16:11:07;;;;;;;19.75;4.00;;;18.00;60.30;;;;;;4917867;29;20469;-72
2022/04/30 16:13:33;;;;;;;15.75;4.57;;;17.90;60.30;;;;;;4919513;29;20087;-72
2022/04/30 16:16:04;;;;;;;16.02;4.00;;;18.00;60.50;;;;;;4919650;29;20346;-72
2022/04/30 16:18:31;;;;;;;11.95;4.10;;;18.00;60.70;;;;;;4919391;29;20056;-71
2022/04/30 16:20:58;;;;;;;15.25;4.10;;;18.00;61.10;;;;;;4902892;29;20127;-72
2022/04/30 16:23:25;;;;;;;13.90;4.40;;;18.00;61.20;;;;;;4919350;29;20054;-70
2022/04/30 16:25:52;;;;;;;17.23;4.65;;;17.90;61.40;;;;;;4919787;29;20052;-72
2022/04/30 16:28:18;;;;;;;10.15;4.32;;;18.00;61.80;;;;;;4919173;29;20453;-71
2022/04/30 16:30:43;;;;;;;10.60;3.97;;;17.90;61.50;;;;;;4919708;29;20040;-71
2022/04/30 16:33:12;;;;;;;6.25;3.50;;;17.90;61.00;;;;;;4919051;29;20044;-71
2022/04/30 16:35:40;;;;;;;7.97;4.13;;;17.90;55.00;;;;;;4919599;29;20048;-72
2022/04/30 16:38:07;;;;;;;6.72;4.10;;;17.70;53.30;;;;;;4919225;29;20334;-71
2022/04/30 16:40:33;;;;;;;13.38;3.60;;;17.50;54.50;;;;;;4918955;29;20056;-71
2022/04/30 16:42:59;;;;;;;5.55;3.05;;;17.50;55.90;;;;;;4918097;29;20089;-72
2022/04/30 16:45:26;;;;;;;10.02;3.47;;;17.50;57.30;;;;;;4918157;29;20048;-71
2022/04/30 16:47:55;;;;;;;5.93;3.05;;;17.50;57.80;;;;;;4919500;29;20504;-71
2022/04/30 16:50:21;;;;;;;10.57;3.60;;;17.50;58.00;;;;;;4919938;29;20123;-71
2022/04/30 16:52:47;;;;;;;6.40;3.25;;;17.50;58.20;;;;;;4924151;29;20123;-71
2022/04/30 16:58:00;;;;;;;7.75;3.65;;;17.50;58.60;;;;;;4918578;29;20377;-71
2022/04/30 17:00:28;;;;;;;7.97;3.47;;;17.50;58.70;;;;;;4919052;29;20044;-71
2022/04/30 17:02:55;;;;;;;5.80;2.72;;;17.50;58.80;;;;;;4915699;29;20523;-72
2022/04/30 17:05:21;;;;;;;5.20;3.00;;;17.50;58.90;;;;;;4937700;29;20129;-72
2022/04/30 17:07:54;;;;;;;4.45;3.10;;;17.50;58.80;;;;;;4937771;29;20067;-71
2022/04/30 17:10:21;;;;;;;4.33;3.07;;;17.50;58.40;;;;;;4936138;29;20074;-71
2022/04/30 17:12:49;;;;;;;4.65;3.05;;;17.50;57.90;;;;;;4919512;29;20151;-76
2022/04/30 17:15:15;;;;;;;4.68;2.75;;;17.60;57.30;;;;;;4918728;29;20527;-76
2022/04/30 17:17:41;;;;;;;6.35;2.92;;;17.60;56.90;;;;;;4918770;29;20119;-76
2022/04/30 17:20:12;;;;;;;5.05;2.85;;;17.60;56.50;;;;;;4936959;29;20047;-79
2022/04/30 17:22:46;;;;;;;4.68;2.85;;;17.60;55.90;;;;;;4937405;29;20051;-77
2022/04/30 17:25:12;;;;;;;3.13;2.58;;;17.60;55.70;;;;;;4937694;29;20048;-79
2022/04/30 17:27:44;;;;;;;3.97;2.45;;;17.60;55.30;;;;;;4931229;29;20398;-77
2022/04/30 17:30:11;;;;;;;5.90;2.92;;;17.50;54.90;;;;;;4902011;29;20135;-76
2022/04/30 17:38:13;;;;;;;5.20;2.83;;;17.50;53.90;;;;;;4913483;29;20063;-76
2022/04/30 17:40:41;;;;;;;4.00;2.38;;;17.50;53.70;;;;;;4915104;29;20060;-77
2022/04/30 17:43:08;;;;;;;7.10;2.92;;;17.50;53.50;;;;;;4918275;29;20048;-72
2022/04/30 17:45:36;;;;;;;4.63;2.90;;;17.50;53.40;;;;;;4918542;29;20048;-72
2022/04/30 17:48:05;;;;;;;4.00;2.80;;;17.40;53.30;;;;;;4917650;29;20481;-72
2022/04/30 17:50:31;;;;;;;6.13;2.67;;;17.40;53.40;;;;;;4918175;29;20361;-71
2022/04/30 17:52:58;;;;;;;4.85;2.75;;;17.40;53.50;;;;;;4899467;29;20057;-72
2022/04/30 17:55:25;;;;;;;4.82;2.67;;;17.40;53.50;;;;;;4886617;29;20127;-72
2022/04/30 17:57:51;;;;;;;5.18;2.45;;;17.40;53.60;;;;;;4914104;29;20059;-72
2022/04/30 18:00:17;;;;;;;4.93;2.80;;;17.50;53.80;;;;;;4886786;29;20056;-72
2022/04/30 18:02:43;;;;;;;5.05;2.40;;;17.40;53.90;;;;;;4904642;29;20037;-75
2022/04/30 18:05:09;;;;;;;4.82;2.38;;;17.40;54.00;;;;;;4892034;29;20112;-72
2022/04/30 18:07:36;;;;;;;5.47;2.40;;;17.40;54.40;;;;;;4921633;29;20181;-72
2022/04/30 18:10:04;;;;;;;5.35;2.40;;;17.50;54.60;;;;;;4921747;29;20040;-71
2022/04/30 18:12:31;;;;;;;6.35;2.60;;;17.50;54.70;;;;;;4921833;29;20044;-73
2022/04/30 18:14:56;;;;;;;4.13;2.55;;;17.50;54.60;;;;;;4921605;29;20116;-72
2022/04/30 18:17:24;;;;;;;4.97;2.50;;;17.50;54.70;;;;;;4921668;29;20052;-72
2022/04/30 18:19:51;;;;;;;3.10;1.80;;;17.50;54.70;;;;;;4921752;29;20471;-71
2022/04/30 18:22:18;;;;;;;5.13;2.80;;;17.50;54.80;;;;;;4921550;29;20044;-72
2022/04/30 18:24:44;;;;;;;3.40;2.08;;;17.50;54.90;;;;;;4921473;29;20048;-72
2022/04/30 18:27:09;;;;;;;3.92;2.38;;;17.50;55.00;;;;;;4921222;29;20055;-72
2022/04/30 18:29:35;;;;;;;3.78;2.30;;;17.40;55.00;;;;;;4922238;29;20059;-71
2022/04/30 18:32:01;;;;;;;3.90;2.28;;;17.50;55.10;;;;;;4905195;29;20488;-70
2022/04/30 18:34:27;;;;;;;4.78;2.17;;;17.40;55.10;;;;;;4918503;29;20048;-72
2022/04/30 18:36:56;;;;;;;3.33;2.35;;;17.40;55.10;;;;;;4907804;29;20377;-72
2022/04/30 18:39:23;;;;;;;3.53;2.35;;;17.40;55.20;;;;;;4921053;29;20476;-72
2022/04/30 18:41:50;;;;;;;4.93;2.40;;;17.40;55.20;;;;;;4921225;29;20087;-72
2022/04/30 18:44:18;;;;;;;4.90;2.88;;;17.40;55.30;;;;;;4921348;29;20048;-73
2022/04/30 18:46:44;;;;;;;3.92;2.17;;;17.40;55.30;;;;;;4920974;29;20158;-72
2022/04/30 18:49:11;;;;;;;2.75;2.40;;;17.40;55.40;;;;;;4921297;29;20050;-71
2022/04/30 18:51:37;;;;;;;4.22;1.90;;;17.40;55.30;;;;;;4921447;29;20064;-72
2022/04/30 19:02:16;;;;;;;3.58;2.28;;;17.40;55.50;;;;;;4920580;29;20052;-72
2022/04/30 19:04:42;;;;;;;5.05;2.50;;;17.40;55.60;;;;;;4920201;29;20067;-72
2022/04/30 19:07:08;;;;;;;3.17;2.15;;;17.30;55.50;;;;;;4920225;29;20461;-72
2022/04/30 19:09:34;;;;;;;2.92;1.98;;;17.30;55.50;;;;;;4919793;29;20504;-72
2022/04/30 19:12:00;;;;;;;7.03;2.70;;;17.30;55.60;;;;;;4920604;29;20044;-73
2022/04/30 19:14:26;;;;;;;3.35;2.10;;;17.30;55.70;;;;;;4920811;29;20104;-73
2022/04/30 19:16:52;;;;;;;5.35;2.10;;;17.30;55.80;;;;;;4920489;29;20062;-73
2022/04/30 19:19:19;;;;;;;5.60;2.30;;;17.30;55.80;;;;;;4920328;29;20196;-73
2022/04/30 19:21:45;;;;;;;3.22;2.10;;;17.30;55.90;;;;;;4920327;29;20056;-73
2022/04/30 19:24:11;;;;;;;2.83;2.17;;;17.30;56.00;;;;;;4920835;29;20075;-72